Time;durP1;ratioP1;P1;durP2;ratioP2;P2;SDS_P1;SDS_P2;PMS_P1;PMS_P2;Temp;Humidity;BMP_temperature;BMP_pressure;BME280_temperature;BME280_humidity;BME280_pressure;Samples;Min_cycle;Max_cycle;Signal;HPM_P1;HPM_P2
2023/08/29 00:00:18;;;;;;;1.30;1.13;;;23.20;99.90;;;;;;5026990;28;20464;-79
2023/08/29 00:02:45;;;;;;;2.10;1.40;;;23.10;99.90;;;;;;5026258;28;24454;-79
2023/08/29 00:05:13;;;;;;;1.77;1.20;;;23.10;99.90;;;;;;5025847;28;20461;-79
2023/08/29 00:07:39;;;;;;;1.20;1.10;;;23.10;99.90;;;;;;5024834;28;22362;-79
2023/08/29 00:10:07;;;;;;;2.37;1.97;;;23.10;99.90;;;;;;5028731;28;20463;-79
2023/08/29 00:12:35;;;;;;;1.50;1.20;;;23.10;99.90;;;;;;5030814;28;20544;-79
2023/08/29 00:15:03;;;;;;;1.40;1.10;;;23.10;99.90;;;;;;5027605;28;20465;-79
2023/08/29 00:17:30;;;;;;;1.80;1.20;;;23.10;99.90;;;;;;5026559;28;20470;-79
2023/08/29 00:19:57;;;;;;;1.40;1.10;;;23.10;99.90;;;;;;5026520;28;21004;-79
2023/08/29 00:22:25;;;;;;;2.00;1.30;;;23.10;99.90;;;;;;5027299;28;20493;-79
2023/08/29 00:24:52;;;;;;;1.33;1.20;;;23.10;99.90;;;;;;5027880;28;21046;-79
2023/08/29 00:27:20;;;;;;;1.80;1.43;;;23.10;99.90;;;;;;5025096;28;20461;-79
2023/08/29 00:29:46;;;;;;;1.20;1.10;;;23.10;99.90;;;;;;5030343;28;20469;-79
2023/08/29 00:32:13;;;;;;;1.57;1.17;;;23.10;99.90;;;;;;5030514;28;20462;-79
2023/08/29 00:34:40;;;;;;;1.90;1.50;;;23.10;99.90;;;;;;5031963;28;20465;-79
2023/08/29 00:37:07;;;;;;;1.50;1.30;;;23.10;99.90;;;;;;5027033;28;20461;-79
2023/08/29 00:39:35;;;;;;;1.37;1.27;;;23.10;99.90;;;;;;5026415;28;20461;-79
2023/08/29 00:42:02;;;;;;;1.60;1.50;;;23.00;99.90;;;;;;5027635;28;20751;-79
2023/08/29 00:44:29;;;;;;;1.77;1.20;;;23.00;99.90;;;;;;5033095;28;20519;-79
2023/08/29 00:46:56;;;;;;;2.50;1.30;;;23.00;99.90;;;;;;5032414;28;20509;-79
2023/08/29 00:49:26;;;;;;;1.40;1.30;;;23.00;99.90;;;;;;5033444;28;20964;-79
2023/08/29 00:51:53;;;;;;;1.40;1.30;;;23.00;99.90;;;;;;5031526;28;20466;-79
2023/08/29 00:54:21;;;;;;;1.90;1.80;;;23.00;99.90;;;;;;5031241;28;20472;-79
2023/08/29 00:56:49;;;;;;;1.50;1.40;;;23.00;99.90;;;;;;5032688;28;21752;-79
2023/08/29 00:59:16;;;;;;;1.40;1.30;;;23.00;99.90;;;;;;5027901;28;20472;-79
2023/08/29 01:01:47;;;;;;;1.50;1.30;;;23.00;99.90;;;;;;5028067;28;20479;-78
2023/08/29 01:04:14;;;;;;;1.20;1.10;;;23.00;99.90;;;;;;5044685;22;20587;-57
2023/08/29 01:06:40;;;;;;;1.30;1.20;;;23.00;99.90;;;;;;5026847;28;20462;-56
2023/08/29 01:09:08;;;;;;;1.37;1.27;;;23.00;99.90;;;;;;5026632;28;20682;-58
2023/08/29 01:11:42;;;;;;;1.17;1.03;;;23.00;99.90;;;;;;5026366;28;20470;-57
2023/08/29 01:14:27;;;;;;;1.23;1.10;;;23.00;99.90;;;;;;5024280;28;20473;-51
2023/08/29 01:17:01;;;;;;;1.50;1.30;;;23.00;99.90;;;;;;5028882;28;20473;-52
2023/08/29 01:19:29;;;;;;;2.23;1.20;;;23.00;99.90;;;;;;5027745;28;20473;-50
2023/08/29 01:22:07;;;;;;;2.70;1.27;;;23.00;99.90;;;;;;5027251;28;20560;-50
2023/08/29 01:24:43;;;;;;;2.47;1.27;;;23.00;99.90;;;;;;5025128;28;20463;-55
2023/08/29 01:27:12;;;;;;;1.30;1.20;;;22.90;99.90;;;;;;5024799;28;20932;-54
2023/08/29 01:29:40;;;;;;;1.30;1.10;;;22.90;99.90;;;;;;5025783;28;20532;-55
2023/08/29 01:32:07;;;;;;;1.57;1.47;;;22.90;99.90;;;;;;5028316;28;20834;-53
2023/08/29 01:34:34;;;;;;;1.53;1.43;;;22.90;99.90;;;;;;5030702;28;20485;-55
2023/08/29 01:37:01;;;;;;;2.83;1.23;;;22.90;99.90;;;;;;5026704;28;20472;-49
2023/08/29 01:39:28;;;;;;;1.43;1.27;;;22.90;99.90;;;;;;5029165;28;20837;-51
2023/08/29 01:41:54;;;;;;;1.80;1.30;;;22.90;99.90;;;;;;5024396;28;20478;-56
2023/08/29 01:44:22;;;;;;;1.20;1.10;;;22.90;99.90;;;;;;5028516;28;20453;-57
2023/08/29 01:46:49;;;;;;;1.73;1.03;;;22.90;99.90;;;;;;5029374;28;20465;-50
2023/08/29 01:49:16;;;;;;;1.47;1.37;;;22.90;99.90;;;;;;5029732;28;20519;-55
2023/08/29 01:51:43;;;;;;;1.50;1.37;;;22.90;99.90;;;;;;5032572;28;21350;-55
2023/08/29 01:54:09;;;;;;;1.30;1.13;;;22.80;99.90;;;;;;5030068;28;20493;-49
2023/08/29 01:56:39;;;;;;;1.30;1.20;;;22.90;99.90;;;;;;5029526;28;20469;-55
2023/08/29 01:59:07;;;;;;;1.23;1.13;;;22.90;99.90;;;;;;5033141;28;20597;-52
2023/08/29 02:01:35;;;;;;;1.20;1.10;;;22.80;99.90;;;;;;5029134;28;20453;-53
2023/08/29 02:04:02;;;;;;;1.37;1.27;;;22.80;99.90;;;;;;5027172;28;20478;-51
2023/08/29 02:06:29;;;;;;;1.37;1.27;;;22.80;99.90;;;;;;5032223;28;20463;-51
2023/08/29 02:08:56;;;;;;;1.30;1.00;;;22.80;99.90;;;;;;5030063;28;20900;-52
2023/08/29 02:11:22;;;;;;;1.30;1.00;;;22.80;99.90;;;;;;5029952;28;20473;-56
2023/08/29 02:13:49;;;;;;;1.30;1.20;;;22.80;99.90;;;;;;5031716;28;20825;-51
2023/08/29 02:16:16;;;;;;;1.60;1.30;;;22.80;99.90;;;;;;5028742;28;20461;-50
2023/08/29 02:18:44;;;;;;;1.30;1.10;;;22.80;99.90;;;;;;5032646;28;20465;-53
2023/08/29 02:21:11;;;;;;;1.00;0.90;;;22.80;99.90;;;;;;5032534;28;20492;-56
2023/08/29 02:23:37;;;;;;;1.30;1.20;;;22.80;99.90;;;;;;5032232;28;20541;-49
2023/08/29 02:26:05;;;;;;;1.67;1.30;;;22.80;99.90;;;;;;5028771;28;20464;-53
2023/08/29 02:28:35;;;;;;;1.57;1.40;;;22.80;99.90;;;;;;5030054;28;20457;-58
2023/08/29 02:31:05;;;;;;;1.57;1.47;;;22.80;99.90;;;;;;5031130;28;20468;-49
2023/08/29 02:33:31;;;;;;;1.30;1.20;;;22.80;99.90;;;;;;5027514;28;20999;-52
2023/08/29 02:35:59;;;;;;;1.23;1.00;;;22.80;99.90;;;;;;5027275;28;20461;-51
2023/08/29 02:38:26;;;;;;;1.53;1.13;;;22.80;99.90;;;;;;5029678;28;20474;-52
2023/08/29 02:40:53;;;;;;;1.30;1.10;;;22.80;99.90;;;;;;5028383;28;20457;-55
2023/08/29 02:43:20;;;;;;;1.17;1.07;;;22.80;99.90;;;;;;5026723;28;20836;-51
2023/08/29 02:45:46;;;;;;;1.20;1.10;;;22.80;99.90;;;;;;5025125;28;20480;-51
2023/08/29 02:48:13;;;;;;;1.87;1.20;;;22.80;99.90;;;;;;5027203;28;20453;-53
2023/08/29 02:50:40;;;;;;;1.03;0.93;;;22.80;99.90;;;;;;5029927;28;20923;-58
2023/08/29 02:53:08;;;;;;;1.60;1.23;;;22.80;99.90;;;;;;5028269;28;20465;-55
2023/08/29 02:55:35;;;;;;;1.40;1.10;;;22.70;99.90;;;;;;5025752;28;20849;-54
2023/08/29 02:58:02;;;;;;;1.57;1.10;;;22.70;99.90;;;;;;5024036;28;20462;-54
2023/08/29 03:00:29;;;;;;;1.30;1.03;;;22.70;99.90;;;;;;5024546;28;20469;-58
2023/08/29 03:02:57;;;;;;;1.57;1.20;;;22.70;99.90;;;;;;5023480;28;20500;-55
2023/08/29 03:05:24;;;;;;;1.17;1.03;;;22.70;99.90;;;;;;5024535;28;20466;-52
2023/08/29 03:07:50;;;;;;;1.30;1.20;;;22.70;99.90;;;;;;5024479;28;20473;-56
2023/08/29 03:10:18;;;;;;;1.60;1.50;;;22.70;99.90;;;;;;5024300;28;20469;-59
2023/08/29 03:12:45;;;;;;;1.33;1.23;;;22.70;99.90;;;;;;5023825;28;20477;-56
2023/08/29 03:15:12;;;;;;;1.73;1.63;;;22.70;99.90;;;;;;5022764;28;20457;-53
2023/08/29 03:17:38;;;;;;;1.30;1.20;;;22.70;99.90;;;;;;5025241;28;20803;-54
2023/08/29 03:20:08;;;;;;;1.40;1.17;;;22.70;99.90;;;;;;5026719;28;20485;-52
2023/08/29 03:22:35;;;;;;;1.27;1.17;;;22.70;99.90;;;;;;5026296;28;20688;-51
2023/08/29 03:25:01;;;;;;;1.20;1.00;;;22.70;99.90;;;;;;5024704;28;20474;-53
2023/08/29 03:27:30;;;;;;;1.70;1.43;;;22.70;99.90;;;;;;5024928;28;20459;-51
2023/08/29 03:29:56;;;;;;;1.67;1.20;;;22.70;99.90;;;;;;5025597;28;21034;-60
2023/08/29 03:32:23;;;;;;;1.20;1.00;;;22.70;99.90;;;;;;5021934;28;20476;-52
2023/08/29 03:34:54;;;;;;;1.17;1.00;;;22.70;99.90;;;;;;5024767;28;20470;-54
2023/08/29 03:37:20;;;;;;;1.40;1.27;;;22.70;99.90;;;;;;5024425;28;21020;-51
2023/08/29 03:39:47;;;;;;;2.23;1.00;;;22.70;99.90;;;;;;5023854;28;20458;-52
2023/08/29 03:42:14;;;;;;;1.43;1.33;;;22.70;99.90;;;;;;5021873;28;20471;-53
2023/08/29 03:44:42;;;;;;;1.30;1.20;;;22.70;99.90;;;;;;5026561;28;20461;-50
2023/08/29 03:47:08;;;;;;;1.20;1.10;;;22.60;99.90;;;;;;5024171;28;20466;-49
2023/08/29 03:49:35;;;;;;;1.20;1.10;;;22.70;99.90;;;;;;5025865;28;20473;-52
2023/08/29 03:52:03;;;;;;;1.47;1.37;;;22.70;99.90;;;;;;5023888;28;20460;-56
2023/08/29 03:54:29;;;;;;;2.60;1.30;;;22.60;99.90;;;;;;5026225;28;20462;-57
2023/08/29 03:56:56;;;;;;;1.10;1.00;;;22.60;99.90;;;;;;5026031;28;21057;-55
2023/08/29 03:59:23;;;;;;;1.20;0.90;;;22.60;99.90;;;;;;5025799;28;20461;-56
2023/08/29 04:01:51;;;;;;;1.17;1.00;;;22.60;99.90;;;;;;5025112;28;20469;-55
2023/08/29 04:04:18;;;;;;;1.20;1.10;;;22.60;99.90;;;;;;5026041;28;20587;-51
2023/08/29 04:06:44;;;;;;;1.30;1.20;;;22.60;99.90;;;;;;5022155;28;20457;-53
2023/08/29 04:09:11;;;;;;;1.07;0.93;;;22.60;99.90;;;;;;5025734;28;20746;-49
2023/08/29 04:11:38;;;;;;;1.30;1.13;;;22.60;99.90;;;;;;5025644;28;20465;-55
2023/08/29 04:14:04;;;;;;;1.50;1.20;;;22.60;99.90;;;;;;5032268;28;20544;-51
2023/08/29 04:16:31;;;;;;;1.47;1.37;;;22.60;99.90;;;;;;5028871;28;20467;-54
2023/08/29 04:19:00;;;;;;;1.20;1.10;;;22.60;99.90;;;;;;5025821;28;20465;-60
2023/08/29 04:21:26;;;;;;;1.53;1.10;;;22.60;99.90;;;;;;5021214;28;20902;-51
2023/08/29 04:23:53;;;;;;;1.20;1.10;;;22.60;99.90;;;;;;5025446;28;20489;-54
2023/08/29 04:26:21;;;;;;;1.33;1.23;;;22.60;99.90;;;;;;5027987;28;20466;-56
2023/08/29 04:28:48;;;;;;;1.20;1.00;;;22.60;99.90;;;;;;5029912;28;20978;-50
2023/08/29 04:31:17;;;;;;;1.30;1.20;;;22.60;99.90;;;;;;5025075;28;20519;-53
2023/08/29 04:33:44;;;;;;;1.37;1.27;;;22.60;99.90;;;;;;5028778;28;20925;-53
2023/08/29 04:36:15;;;;;;;2.03;1.10;;;22.60;99.90;;;;;;5018425;28;20454;-50
2023/08/29 04:38:42;;;;;;;1.30;1.10;;;22.60;99.90;;;;;;5021614;28;20513;-51
2023/08/29 04:41:09;;;;;;;1.30;1.20;;;22.60;99.90;;;;;;5027822;28;20860;-50
2023/08/29 04:43:36;;;;;;;1.00;0.90;;;22.60;99.90;;;;;;5029636;28;20957;-57
2023/08/29 04:46:03;;;;;;;1.10;1.00;;;22.60;99.90;;;;;;5025672;28;20836;-52
2023/08/29 04:48:29;;;;;;;1.00;0.90;;;22.60;99.90;;;;;;5030039;28;20457;-50
2023/08/29 04:50:56;;;;;;;1.30;1.20;;;22.60;99.90;;;;;;5027754;28;20469;-58
2023/08/29 04:53:24;;;;;;;1.20;1.10;;;22.60;99.90;;;;;;5030024;28;20473;-56
2023/08/29 04:55:59;;;;;;;1.00;0.90;;;22.50;99.90;;;;;;5029158;28;20463;-49
2023/08/29 04:58:26;;;;;;;1.20;1.10;;;22.60;99.90;;;;;;5030142;28;20871;-58
2023/08/29 05:00:53;;;;;;;1.20;1.10;;;22.50;99.90;;;;;;5029241;28;20462;-50
2023/08/29 05:03:19;;;;;;;1.20;1.10;;;22.60;99.90;;;;;;5028251;28;20525;-56
2023/08/29 05:05:46;;;;;;;1.30;1.20;;;22.50;99.90;;;;;;5028268;28;20458;-50
2023/08/29 05:08:13;;;;;;;1.20;1.07;;;22.50;99.90;;;;;;5026776;28;20498;-52
2023/08/29 05:10:41;;;;;;;1.40;1.20;;;22.50;99.90;;;;;;5026271;28;20907;-53
2023/08/29 05:13:09;;;;;;;1.30;1.13;;;22.50;99.90;;;;;;5027864;28;20476;-51
2023/08/29 05:15:35;;;;;;;1.20;1.10;;;22.50;99.90;;;;;;5021399;28;21011;-53
2023/08/29 05:18:02;;;;;;;1.53;1.23;;;22.50;99.90;;;;;;5026542;28;20468;-50
2023/08/29 05:20:29;;;;;;;1.40;1.23;;;22.50;99.90;;;;;;5026462;28;20503;-58
2023/08/29 05:22:55;;;;;;;1.10;1.00;;;22.50;99.90;;;;;;5031339;28;20480;-51
2023/08/29 05:25:23;;;;;;;1.30;1.20;;;22.50;99.90;;;;;;5029996;28;20457;-53
2023/08/29 05:27:51;;;;;;;1.10;1.00;;;22.50;99.90;;;;;;5032878;28;20602;-53
2023/08/29 05:30:17;;;;;;;1.10;1.00;;;22.50;99.90;;;;;;5032101;28;21165;-56
2023/08/29 05:32:45;;;;;;;1.30;1.10;;;22.50;99.90;;;;;;5030479;28;20458;-54
2023/08/29 05:35:12;;;;;;;1.17;1.00;;;22.50;99.90;;;;;;5032240;28;20462;-54
2023/08/29 05:37:38;;;;;;;1.13;1.03;;;22.50;99.90;;;;;;5027193;28;20454;-57
2023/08/29 05:40:06;;;;;;;1.17;0.97;;;22.50;99.90;;;;;;5018653;28;20470;-51
2023/08/29 05:42:33;;;;;;;1.50;1.20;;;22.50;99.90;;;;;;5023628;28;20898;-53
2023/08/29 05:45:01;;;;;;;1.30;1.20;;;22.50;99.90;;;;;;5024241;28;20493;-57
2023/08/29 05:47:28;;;;;;;1.20;1.10;;;22.50;99.90;;;;;;5018499;28;21034;-55
2023/08/29 05:49:54;;;;;;;1.93;1.37;;;22.40;99.90;;;;;;5022606;28;20473;-53
2023/08/29 05:52:21;;;;;;;1.13;1.03;;;22.50;99.90;;;;;;5017232;28;20464;-55
2023/08/29 05:54:48;;;;;;;1.47;1.37;;;22.40;99.90;;;;;;5019416;28;20469;-50
2023/08/29 05:57:15;;;;;;;1.17;1.07;;;22.50;99.90;;;;;;5020375;28;20527;-54
2023/08/29 05:59:42;;;;;;;1.40;1.30;;;22.50;99.90;;;;;;5020235;28;20465;-54
2023/08/29 06:02:11;;;;;;;4.20;1.30;;;22.50;99.90;;;;;;5021674;28;20465;-56
2023/08/29 06:04:38;;;;;;;4.00;1.20;;;22.50;99.90;;;;;;5023851;28;20522;-55
2023/08/29 06:07:06;;;;;;;1.40;1.30;;;22.50;99.90;;;;;;5021924;28;20802;-50
2023/08/29 06:09:33;;;;;;;1.10;0.90;;;22.40;99.90;;;;;;5024171;28;20504;-55
2023/08/29 06:11:59;;;;;;;1.37;1.27;;;22.40;99.90;;;;;;5023880;28;20462;-54
2023/08/29 06:14:26;;;;;;;1.10;1.00;;;22.50;99.90;;;;;;5024501;28;21254;-56
2023/08/29 06:16:53;;;;;;;1.20;1.10;;;22.40;99.90;;;;;;5020713;28;20462;-56
2023/08/29 06:19:21;;;;;;;1.20;1.10;;;22.40;99.90;;;;;;5022039;28;20501;-54
2023/08/29 06:21:47;;;;;;;1.30;1.13;;;22.40;99.90;;;;;;5021576;28;20462;-54
2023/08/29 06:24:15;;;;;;;1.30;1.20;;;22.40;99.90;;;;;;5023082;28;20531;-55
2023/08/29 06:26:42;;;;;;;1.30;1.20;;;22.40;99.90;;;;;;5021748;28;20465;-60
2023/08/29 06:29:08;;;;;;;1.50;1.30;;;22.40;99.90;;;;;;5024108;28;20461;-55
2023/08/29 06:31:35;;;;;;;1.07;0.90;;;22.40;99.90;;;;;;5014671;28;20466;-59
2023/08/29 06:34:02;;;;;;;1.17;1.07;;;22.40;99.90;;;;;;5016128;28;20463;-58
2023/08/29 06:36:30;;;;;;;1.40;1.23;;;22.40;99.90;;;;;;5020619;28;20829;-59
2023/08/29 06:38:57;;;;;;;1.63;1.33;;;22.40;99.90;;;;;;5023284;28;20458;-56
2023/08/29 06:41:24;;;;;;;2.50;1.80;;;22.40;99.90;;;;;;5026172;28;20960;-57
2023/08/29 06:43:51;;;;;;;2.23;2.03;;;22.40;99.90;;;;;;5026612;28;20480;-63
2023/08/29 06:46:17;;;;;;;3.10;2.90;;;22.40;99.90;;;;;;5026086;28;20813;-60
2023/08/29 06:48:45;;;;;;;4.23;3.43;;;22.40;99.90;;;;;;5028141;28;20470;-60
2023/08/29 06:51:12;;;;;;;4.30;4.00;;;22.30;99.90;;;;;;5028067;28;20473;-61
2023/08/29 06:53:40;;;;;;;5.23;4.30;;;22.40;99.90;;;;;;5029697;28;21116;-63
2023/08/29 06:56:06;;;;;;;5.57;3.50;;;22.40;99.90;;;;;;5029224;28;20465;-60
2023/08/29 06:58:32;;;;;;;6.17;3.90;;;22.30;99.90;;;;;;5034237;28;20453;-59
2023/08/29 07:00:59;;;;;;;4.20;3.80;;;22.30;99.90;;;;;;5026559;28;20454;-61
2023/08/29 07:03:26;;;;;;;4.90;3.17;;;22.30;99.90;;;;;;5028723;28;20226;-60
2023/08/29 07:05:54;;;;;;;3.60;3.30;;;22.30;99.90;;;;;;5026617;28;20458;-62
2023/08/29 07:08:21;;;;;;;5.00;4.60;;;22.30;99.90;;;;;;5025056;28;20485;-64
2023/08/29 07:10:50;;;;;;;3.83;3.40;;;22.30;99.90;;;;;;5029922;28;20469;-62
2023/08/29 07:13:17;;;;;;;3.80;3.40;;;22.30;99.90;;;;;;5030237;28;20470;-62
2023/08/29 07:15:43;;;;;;;7.10;3.97;;;22.30;99.90;;;;;;5028870;28;20562;-64
2023/08/29 07:18:10;;;;;;;3.73;3.07;;;22.30;99.90;;;;;;5029830;28;20878;-64
2023/08/29 07:20:37;;;;;;;3.00;2.70;;;22.30;99.90;;;;;;5028757;28;20461;-64
2023/08/29 07:23:04;;;;;;;3.47;3.17;;;22.40;99.90;;;;;;5029573;28;20490;-60
2023/08/29 07:25:38;;;;;;;2.37;2.17;;;22.40;99.90;;;;;;5021806;28;20489;-64
2023/08/29 07:28:07;;;;;;;2.50;2.27;;;22.40;99.90;;;;;;5022207;28;20884;-61
2023/08/29 07:30:34;;;;;;;2.50;2.30;;;22.40;99.90;;;;;;5020308;28;20470;-60
2023/08/29 07:33:01;;;;;;;9.60;2.13;;;22.50;99.90;;;;;;5028476;28;20961;-57
2023/08/29 07:35:27;;;;;;;1.90;1.80;;;22.50;99.90;;;;;;5027906;28;20470;-61
2023/08/29 07:37:54;;;;;;;3.83;2.17;;;22.50;99.90;;;;;;5019627;28;20445;-64
2023/08/29 07:40:21;;;;;;;7.03;2.20;;;22.50;99.90;;;;;;5025984;28;20454;-59
2023/08/29 07:42:48;;;;;;;6.23;3.43;;;22.60;99.90;;;;;;5028055;28;20822;-60
2023/08/29 07:45:16;;;;;;;3.77;2.07;;;22.60;99.90;;;;;;5027870;28;20515;-62
2023/08/29 07:47:42;;;;;;;5.43;2.00;;;22.60;99.90;;;;;;5027351;28;20454;-62
2023/08/29 07:50:09;;;;;;;3.00;1.93;;;22.60;99.90;;;;;;5022254;28;20553;-60
2023/08/29 07:52:37;;;;;;;3.30;1.77;;;22.70;99.90;;;;;;5023988;28;20464;-59
2023/08/29 07:55:04;;;;;;;4.53;2.33;;;22.60;99.90;;;;;;5018565;28;20611;-60
2023/08/29 07:57:31;;;;;;;2.60;1.87;;;22.70;99.90;;;;;;5025579;28;20466;-61
2023/08/29 07:59:58;;;;;;;3.03;1.80;;;22.70;99.90;;;;;;5025773;28;20956;-57
2023/08/29 08:02:26;;;;;;;3.57;1.80;;;22.70;99.90;;;;;;5025599;28;20548;-60
2023/08/29 08:04:53;;;;;;;3.27;1.70;;;22.70;99.90;;;;;;5017886;28;20516;-58
2023/08/29 08:07:19;;;;;;;4.77;2.20;;;22.80;99.90;;;;;;5022991;28;21653;-53
2023/08/29 08:09:46;;;;;;;3.70;2.20;;;22.80;99.90;;;;;;5023310;28;20462;-56
2023/08/29 08:12:13;;;;;;;4.23;2.00;;;22.80;99.90;;;;;;5025138;28;20946;-58
2023/08/29 08:14:39;;;;;;;3.73;1.63;;;22.80;99.90;;;;;;5026533;28;20826;-56
2023/08/29 08:17:06;;;;;;;4.53;2.30;;;22.80;99.90;;;;;;5024208;28;20462;-62
2023/08/29 08:19:34;;;;;;;4.43;2.10;;;22.80;99.90;;;;;;5020522;28;20459;-55
2023/08/29 08:22:01;;;;;;;2.43;1.83;;;22.80;99.90;;;;;;5026933;28;20469;-60
2023/08/29 08:24:28;;;;;;;3.00;2.43;;;22.80;99.90;;;;;;5026576;28;20479;-60
2023/08/29 08:26:55;;;;;;;4.00;2.30;;;22.80;99.90;;;;;;5020474;28;21124;-59
2023/08/29 08:29:21;;;;;;;4.27;3.20;;;22.80;99.90;;;;;;5021666;28;20459;-54
2023/08/29 08:31:48;;;;;;;4.10;2.63;;;22.80;99.90;;;;;;5019167;28;20818;-54
2023/08/29 08:34:15;;;;;;;4.07;2.60;;;22.90;99.90;;;;;;5019161;28;20466;-49
2023/08/29 08:36:43;;;;;;;2.77;2.50;;;22.80;99.90;;;;;;5030996;28;20469;-54
2023/08/29 08:39:09;;;;;;;4.27;2.30;;;22.90;99.90;;;;;;5027494;28;20974;-48
2023/08/29 08:41:37;;;;;;;2.70;2.13;;;22.90;99.90;;;;;;5032787;28;20468;-48
2023/08/29 08:44:09;;;;;;;12.23;2.37;;;22.90;99.90;;;;;;5030587;28;20484;-51
2023/08/29 08:46:36;;;;;;;2.97;1.67;;;22.90;99.90;;;;;;5028693;28;20463;-51
2023/08/29 08:49:03;;;;;;;2.43;1.90;;;22.90;99.90;;;;;;5029392;28;20453;-52
2023/08/29 08:51:32;;;;;;;3.00;2.40;;;23.00;99.90;;;;;;5028363;28;20454;-54
2023/08/29 08:54:00;;;;;;;2.67;1.63;;;23.00;99.90;;;;;;5029680;28;20938;-54
2023/08/29 08:56:29;;;;;;;2.83;2.40;;;23.00;99.90;;;;;;5026728;28;20469;-50
2023/08/29 08:58:56;;;;;;;2.77;2.10;;;23.00;99.90;;;;;;5028190;28;20458;-54
2023/08/29 09:01:23;;;;;;;3.20;2.00;;;23.00;99.90;;;;;;5027328;28;20878;-50
2023/08/29 09:03:50;;;;;;;2.03;1.70;;;23.00;99.90;;;;;;5035108;28;20465;-47
2023/08/29 09:06:17;;;;;;;2.33;1.57;;;22.90;99.90;;;;;;5030166;28;20885;-58
2023/08/29 09:08:44;;;;;;;22.23;2.37;;;23.00;99.90;;;;;;5032744;28;20461;-53
2023/08/29 09:11:12;;;;;;;8.23;2.40;;;22.90;99.90;;;;;;5030528;28;20453;-53
2023/08/29 09:13:46;;;;;;;3.80;1.70;;;23.00;99.90;;;;;;5036219;28;20456;-56
2023/08/29 09:16:14;;;;;;;16.10;1.67;;;23.00;99.90;;;;;;5026130;28;20512;-56
2023/08/29 09:18:44;;;;;;;6.20;1.67;;;23.00;99.90;;;;;;5026383;28;20481;-57
2023/08/29 09:21:16;;;;;;;4.90;2.10;;;23.00;99.90;;;;;;5027345;28;21091;-53
2023/08/29 09:23:44;;;;;;;8.47;1.90;;;23.00;99.90;;;;;;5027834;28;20472;-57
2023/08/29 09:26:13;;;;;;;8.30;1.90;;;23.00;99.90;;;;;;5022132;28;21248;-54
2023/08/29 09:28:40;;;;;;;5.13;3.10;;;23.00;99.90;;;;;;5026479;28;20458;-56
2023/08/29 09:31:08;;;;;;;10.67;1.70;;;23.00;99.90;;;;;;5027232;28;20458;-59
2023/08/29 09:33:35;;;;;;;6.20;2.00;;;22.90;99.90;;;;;;5028422;28;20912;-54
2023/08/29 09:36:02;;;;;;;3.10;1.80;;;23.00;99.90;;;;;;5028582;28;20465;-58
2023/08/29 09:38:29;;;;;;;5.10;1.70;;;22.90;99.90;;;;;;5029832;28;20465;-58
2023/08/29 09:40:56;;;;;;;6.10;1.93;;;23.00;99.90;;;;;;5028909;28;20462;-55
2023/08/29 09:43:24;;;;;;;3.43;1.90;;;23.00;99.90;;;;;;5028998;28;20813;-53
2023/08/29 09:45:52;;;;;;;2.00;1.70;;;23.00;99.90;;;;;;5030580;28;20480;-54
2023/08/29 09:48:19;;;;;;;2.53;1.70;;;23.00;99.90;;;;;;5031572;28;20466;-55
2023/08/29 09:50:47;;;;;;;4.03;1.70;;;23.00;99.90;;;;;;5030508;28;21044;-56
2023/08/29 09:53:16;;;;;;;1.93;1.60;;;22.90;99.90;;;;;;5030848;28;20455;-50
2023/08/29 09:55:45;;;;;;;3.03;1.83;;;23.00;99.90;;;;;;5030233;28;20532;-56
2023/08/29 09:58:14;;;;;;;4.30;1.83;;;22.90;99.90;;;;;;5027129;28;20457;-52
2023/08/29 10:00:44;;;;;;;3.90;1.70;;;23.00;99.90;;;;;;5032205;28;20936;-57
2023/08/29 10:03:12;;;;;;;5.27;1.90;;;22.90;99.90;;;;;;5029378;28;20476;-57
2023/08/29 10:05:40;;;;;;;2.43;1.60;;;22.90;99.90;;;;;;5028892;28;20936;-55
2023/08/29 10:08:16;;;;;;;2.27;1.70;;;22.90;99.90;;;;;;5028003;28;20463;-56
2023/08/29 10:10:43;;;;;;;2.77;1.80;;;22.90;99.90;;;;;;5028482;28;20465;-54
2023/08/29 10:13:11;;;;;;;9.90;1.90;;;22.90;99.90;;;;;;5027361;28;20465;-56
2023/08/29 10:15:40;;;;;;;2.57;2.37;;;22.90;99.90;;;;;;5028320;28;20469;-54
2023/08/29 10:18:08;;;;;;;2.83;1.70;;;22.90;99.90;;;;;;5028939;28;20470;-52
2023/08/29 10:20:37;;;;;;;2.00;1.60;;;22.90;99.90;;;;;;5029564;28;20588;-56
2023/08/29 10:23:05;;;;;;;1.73;1.63;;;22.90;99.90;;;;;;5031454;28;20450;-56
2023/08/29 10:25:32;;;;;;;4.20;1.90;;;22.90;99.90;;;;;;5028881;28;20469;-60
2023/08/29 10:27:59;;;;;;;4.13;1.97;;;22.90;99.90;;;;;;5031108;28;20824;-60
2023/08/29 10:30:27;;;;;;;2.47;2.27;;;22.90;99.90;;;;;;5030610;28;20516;-57
2023/08/29 10:32:54;;;;;;;1.67;1.57;;;22.90;99.90;;;;;;5033796;28;20449;-57
2023/08/29 10:35:23;;;;;;;1.97;1.53;;;22.90;99.90;;;;;;5032626;28;20823;-59
2023/08/29 10:37:51;;;;;;;5.53;1.80;;;22.90;99.90;;;;;;5034002;28;20556;-57
2023/08/29 10:40:18;;;;;;;2.80;1.70;;;22.80;99.90;;;;;;5030657;28;20497;-53
2023/08/29 10:42:51;;;;;;;2.43;1.67;;;22.80;99.90;;;;;;5028690;28;20480;-54
2023/08/29 10:45:19;;;;;;;4.63;1.70;;;22.80;99.90;;;;;;5022181;28;20596;-56
2023/08/29 10:47:47;;;;;;;2.20;1.80;;;22.80;99.90;;;;;;5035199;28;20465;-51
2023/08/29 10:50:18;;;;;;;3.00;1.60;;;22.80;99.90;;;;;;5030117;28;20464;-57
2023/08/29 10:52:46;;;;;;;4.80;1.53;;;22.80;99.90;;;;;;5036923;28;20470;-57
2023/08/29 10:55:22;;;;;;;3.37;1.83;;;22.90;99.90;;;;;;5032935;28;20960;-49
2023/08/29 10:57:49;;;;;;;3.10;1.53;;;22.80;99.90;;;;;;5019022;28;20450;-58
2023/08/29 11:00:19;;;;;;;3.53;1.60;;;22.80;99.90;;;;;;5028442;28;20493;-53
2023/08/29 11:02:47;;;;;;;1.83;1.63;;;22.80;99.90;;;;;;5029356;28;20469;-59
2023/08/29 11:05:15;;;;;;;2.80;1.60;;;22.80;99.90;;;;;;5025542;28;20973;-55
2023/08/29 11:07:42;;;;;;;3.87;1.50;;;22.80;99.90;;;;;;5025857;28;20465;-51
2023/08/29 11:10:14;;;;;;;2.00;1.60;;;22.80;99.90;;;;;;5030699;28;20473;-50
2023/08/29 11:13:06;;;;;;;1.93;1.33;;;22.80;99.90;;;;;;5027380;28;20458;-48
2023/08/29 11:16:05;;;;;;;4.03;1.80;;;22.80;99.90;;;;;;5030673;28;21017;-57
2023/08/29 11:18:33;;;;;;;2.80;2.00;;;22.80;99.90;;;;;;5030027;28;20501;-49
2023/08/29 11:21:07;;;;;;;2.43;1.80;;;22.80;99.90;;;;;;5021019;28;20465;-60
2023/08/29 11:23:38;;;;;;;2.00;1.80;;;22.80;99.90;;;;;;5026903;28;20550;-56
2023/08/29 11:26:08;;;;;;;2.90;1.40;;;22.80;99.90;;;;;;5023023;28;20833;-55
2023/08/29 11:28:39;;;;;;;2.57;2.00;;;22.80;99.90;;;;;;5027717;28;20451;-52
2023/08/29 11:31:06;;;;;;;3.47;1.97;;;22.80;99.90;;;;;;5017276;28;21093;-57
2023/08/29 11:33:34;;;;;;;4.50;1.93;;;22.80;99.90;;;;;;5019523;28;20473;-58
2023/08/29 11:36:02;;;;;;;2.17;1.97;;;22.70;99.90;;;;;;5017354;28;20962;-57
2023/08/29 11:38:30;;;;;;;2.33;2.10;;;22.80;99.90;;;;;;5016248;28;20473;-54
2023/08/29 11:40:57;;;;;;;8.00;2.53;;;22.80;99.90;;;;;;5019237;28;20465;-55
2023/08/29 11:43:25;;;;;;;3.17;2.10;;;22.70;99.90;;;;;;5019842;28;20474;-56
2023/08/29 11:45:53;;;;;;;3.10;2.40;;;22.70;99.90;;;;;;5022044;28;20697;-56
2023/08/29 11:48:24;;;;;;;2.50;2.30;;;22.70;99.90;;;;;;5021460;28;21993;-57
2023/08/29 11:50:53;;;;;;;4.60;2.20;;;22.70;99.90;;;;;;5019960;28;20453;-55
2023/08/29 11:53:27;;;;;;;4.80;3.00;;;22.70;99.90;;;;;;5021107;28;20465;-57
2023/08/29 11:55:54;;;;;;;5.30;2.83;;;22.70;99.90;;;;;;5022613;28;20470;-55
2023/08/29 11:58:24;;;;;;;2.60;2.10;;;22.70;99.90;;;;;;5023059;28;20462;-60
2023/08/29 12:00:53;;;;;;;2.43;2.23;;;22.80;99.90;;;;;;5023317;28;20469;-58
2023/08/29 12:03:21;;;;;;;2.20;2.00;;;22.80;99.90;;;;;;5021884;28;20477;-61
2023/08/29 12:05:48;;;;;;;3.73;2.40;;;22.70;99.90;;;;;;5018844;28;20811;-57
2023/08/29 12:08:15;;;;;;;5.23;2.23;;;22.80;99.90;;;;;;5022568;28;20461;-58
2023/08/29 12:10:51;;;;;;;3.20;2.17;;;22.80;99.90;;;;;;5021368;28;20496;-58
2023/08/29 12:13:17;;;;;;;3.97;2.10;;;22.80;99.90;;;;;;5023092;28;20470;-59
2023/08/29 12:15:44;;;;;;;3.30;1.97;;;22.80;99.90;;;;;;5023604;28;20493;-60
2023/08/29 12:18:22;;;;;;;2.43;1.97;;;22.80;99.90;;;;;;5023664;28;20470;-60
2023/08/29 12:20:49;;;;;;;2.13;1.70;;;22.90;99.90;;;;;;5024117;28;21181;-58
2023/08/29 12:23:26;;;;;;;2.20;2.00;;;22.90;99.90;;;;;;5024631;28;20462;-57
2023/08/29 12:25:55;;;;;;;2.20;2.00;;;22.90;99.90;;;;;;5021820;28;21044;-58
2023/08/29 12:28:22;;;;;;;5.13;2.20;;;22.90;99.90;;;;;;5023497;28;20493;-53
2023/08/29 12:30:49;;;;;;;4.50;2.00;;;22.90;99.90;;;;;;5021932;28;21005;-55
2023/08/29 12:33:16;;;;;;;1.83;1.67;;;22.90;99.90;;;;;;5022376;28;20549;-55
2023/08/29 12:35:44;;;;;;;2.77;1.90;;;22.90;99.90;;;;;;5023205;28;20473;-52
2023/08/29 12:38:11;;;;;;;3.37;1.90;;;22.90;99.90;;;;;;5028008;28;20481;-51
2023/08/29 12:40:38;;;;;;;4.07;2.37;;;22.90;99.90;;;;;;5028546;28;20462;-52
2023/08/29 12:43:06;;;;;;;5.93;1.90;;;22.90;99.90;;;;;;5033286;28;20540;-54
2023/08/29 12:45:32;;;;;;;4.37;2.70;;;22.90;99.90;;;;;;5034216;28;20475;-54
2023/08/29 12:47:59;;;;;;;5.53;1.60;;;22.90;99.90;;;;;;5034429;28;20485;-57